createdAt,value
2023-04-01T00:01:29.055Z,3.01
2023-04-01T00:03:57.193Z,3.00
2023-04-01T00:06:24.630Z,2.99
2023-04-01T00:08:51.403Z,3.01
2023-04-01T00:11:20.589Z,3.00
2023-04-01T00:13:48.222Z,3.02
2023-04-01T00:16:20.968Z,2.98
2023-04-01T00:18:49.954Z,3.03
2023-04-01T00:21:19.467Z,3.01
2023-04-01T00:23:46.161Z,3.01
2023-04-01T00:26:13.380Z,3.03
2023-04-01T00:28:41.252Z,3.04
2023-04-01T00:31:09.610Z,3.02
2023-04-01T00:33:36.737Z,3.03
2023-04-01T00:36:23.755Z,3.02
2023-04-01T00:38:51.420Z,3.00
2023-04-01T00:41:19.762Z,2.94
2023-04-01T00:43:49.217Z,2.97
2023-04-01T00:46:16.268Z,3.01
2023-04-01T00:48:56.428Z,3.04
2023-04-01T00:51:26.674Z,3.05
2023-04-01T00:53:56.066Z,3.10
2023-04-01T00:56:34.599Z,3.08
2023-04-01T00:59:09.371Z,3.10
2023-04-01T01:01:37.696Z,3.16
2023-04-01T01:04:05.177Z,3.19
2023-04-01T01:06:59.250Z,3.18
2023-04-01T01:09:29.465Z,3.20
2023-04-01T01:12:20.539Z,3.16
2023-04-01T01:15:06.390Z,3.16
2023-04-01T01:17:53.247Z,3.13
2023-04-01T01:20:41.644Z,3.13
2023-04-01T01:23:40.153Z,3.03
2023-04-01T01:26:27.293Z,3.13
2023-04-01T01:29:10.062Z,3.16
2023-04-01T01:31:51.698Z,3.18
2023-04-01T01:34:37.397Z,3.20
2023-04-01T01:37:12.244Z,3.17
2023-04-01T01:39:40.528Z,3.21
2023-04-01T01:42:11.189Z,3.23
2023-04-01T01:44:39.365Z,3.18
2023-04-01T01:47:06.738Z,3.27
2023-04-01T01:49:35.196Z,3.31
2023-04-01T01:52:02.113Z,3.34
2023-04-01T01:54:28.765Z,3.28
2023-04-01T01:57:11.067Z,3.26
2023-04-01T01:59:40.952Z,3.27
2023-04-01T02:02:09.613Z,3.29
2023-04-01T02:04:40.464Z,3.30
2023-04-01T02:07:18.628Z,3.25
2023-04-01T02:09:45.561Z,3.29
2023-04-01T02:12:16.214Z,3.32
2023-04-01T02:14:55.329Z,3.31
2023-04-01T02:17:25.232Z,3.33
2023-04-01T02:20:00.258Z,3.34
2023-04-01T02:22:30.246Z,3.30
2023-04-01T02:25:04.656Z,3.28
2023-04-01T02:27:31.958Z,3.28
2023-04-01T02:29:59.209Z,3.25
2023-04-01T02:32:27.943Z,3.26
2023-04-01T02:34:54.875Z,3.30
2023-04-01T02:37:21.884Z,3.27
2023-04-01T02:39:49.244Z,3.27
2023-04-01T02:42:16.138Z,3.32
2023-04-01T02:44:42.738Z,3.32
2023-04-01T02:47:09.518Z,3.34
2023-04-01T02:49:36.223Z,3.35
2023-04-01T02:52:03.697Z,3.37
2023-04-01T02:54:32.817Z,3.36
2023-04-01T02:56:59.454Z,3.31
2023-04-01T02:59:26.055Z,3.29
2023-04-01T03:01:52.741Z,3.32
2023-04-01T03:04:19.333Z,3.38
2023-04-01T03:06:46.252Z,3.39
2023-04-01T03:09:12.929Z,3.44
2023-04-01T03:11:39.674Z,3.45
2023-04-01T03:14:06.255Z,3.48
2023-04-01T03:16:32.870Z,3.50
2023-04-01T03:19:00.810Z,3.52
2023-04-01T03:21:27.361Z,3.53
2023-04-01T03:23:54.976Z,3.52
2023-04-01T03:26:22.555Z,3.54
2023-04-01T03:28:49.397Z,3.57
2023-04-01T03:31:17.210Z,3.55
2023-04-01T03:33:43.955Z,3.52
2023-04-01T03:36:12.661Z,3.51
2023-04-01T03:38:41.025Z,3.53
2023-04-01T03:41:07.844Z,3.45
2023-04-01T03:43:34.550Z,3.54
2023-04-01T03:46:01.300Z,3.46
2023-04-01T03:48:28.025Z,3.53
2023-04-01T03:50:54.786Z,3.53
2023-04-01T03:53:22.188Z,3.53
2023-04-01T03:55:48.809Z,3.53
2023-04-01T03:58:15.588Z,3.54
2023-04-01T04:00:44.070Z,3.57
2023-04-01T04:03:10.893Z,3.61
2023-04-01T04:05:37.628Z,3.61
2023-04-01T04:08:05.197Z,3.58
2023-04-01T04:10:31.766Z,3.63
2023-04-01T04:12:58.301Z,3.65
2023-04-01T04:15:27.650Z,3.71
2023-04-01T04:17:54.291Z,3.70
2023-04-01T04:20:20.942Z,3.71
2023-04-01T04:22:48.871Z,3.75
2023-04-01T04:25:15.858Z,3.78
2023-04-01T04:27:42.658Z,3.83
2023-04-01T04:30:10.155Z,3.86
2023-04-01T04:32:37.071Z,3.94
2023-04-01T04:35:04.191Z,4.03
2023-04-01T04:37:30.826Z,4.05
2023-04-01T04:39:57.416Z,4.05
2023-04-01T04:42:24.008Z,4.07
2023-04-01T04:44:51.172Z,4.12
2023-04-01T04:47:17.831Z,4.10
2023-04-01T04:49:44.451Z,4.24
2023-04-01T04:52:11.162Z,4.32
2023-04-01T04:54:37.716Z,4.29
2023-04-01T04:57:04.343Z,4.24
2023-04-01T04:59:32.191Z,4.13
2023-04-01T05:01:58.787Z,4.09
2023-04-01T05:04:25.383Z,4.08
2023-04-01T05:06:52.895Z,4.08
2023-04-01T05:09:19.589Z,4.14
2023-04-01T05:11:46.464Z,4.20
2023-04-01T05:14:16.304Z,4.20
2023-04-01T05:16:43.150Z,4.23
2023-04-01T05:19:09.873Z,4.33
2023-04-01T05:21:36.475Z,4.42
2023-04-01T05:24:03.132Z,4.48
2023-04-01T05:26:29.682Z,4.54
2023-04-01T05:28:56.294Z,4.70
2023-04-01T05:31:25.181Z,4.75
2023-04-01T05:33:51.998Z,4.80
2023-04-01T05:36:20.116Z,4.88
2023-04-01T05:38:47.467Z,4.91
2023-04-01T05:41:15.338Z,4.99
2023-04-01T05:43:44.007Z,4.95
2023-04-01T05:46:10.700Z,5.12
2023-04-01T05:48:37.393Z,5.24
2023-04-01T05:51:05.010Z,5.34
2023-04-01T05:53:33.427Z,5.48
2023-04-01T05:56:04.643Z,5.44
2023-04-01T05:58:32.250Z,5.39
2023-04-01T06:01:10.152Z,5.57
